createdAt,value
2023-04-12T00:02:27.528Z,100142.84
2023-04-12T00:05:30.912Z,100143.31
2023-04-12T00:08:35.601Z,100138.47
2023-04-12T00:11:37.296Z,100130.94
2023-04-12T00:14:38.881Z,100129.28
2023-04-12T00:17:40.465Z,100124.50
2023-04-12T00:20:43.180Z,100109.16
2023-04-12T00:23:45.076Z,100115.72
2023-04-12T00:26:46.648Z,100120.84
2023-04-12T00:29:48.189Z,100128.13
2023-04-12T00:32:49.771Z,100123.63
2023-04-12T00:35:51.407Z,100123.97
2023-04-12T00:38:53.003Z,100096.69
2023-04-12T00:41:55.637Z,100103.69
2023-04-12T00:44:57.202Z,100115.94
2023-04-12T00:47:59.426Z,100101.09
2023-04-12T00:51:01.801Z,100113.44
2023-04-12T00:54:03.875Z,100099.75
2023-04-12T00:57:05.519Z,100120.00
2023-04-12T01:00:11.934Z,100103.81
2023-04-12T01:03:13.840Z,100100.97
2023-04-12T01:06:32.373Z,100097.84
2023-04-12T01:09:43.286Z,100102.03
2023-04-12T01:12:57.419Z,100091.31
2023-04-12T01:16:16.494Z,100083.81
2023-04-12T01:19:54.267Z,100100.13
2023-04-12T01:23:23.424Z,100081.41
2023-04-12T01:26:45.078Z,100083.31
2023-04-12T01:29:50.061Z,100089.25
2023-04-12T01:32:53.502Z,100087.25
2023-04-12T01:35:55.562Z,100083.91
2023-04-12T01:38:58.092Z,100094.63
2023-04-12T01:41:59.627Z,100085.34
2023-04-12T01:45:02.816Z,100090.00
2023-04-12T01:48:12.487Z,100091.06
2023-04-12T01:51:40.492Z,100096.91
2023-04-12T01:54:44.599Z,100083.53
2023-04-12T01:57:48.939Z,100099.50
2023-04-12T02:00:52.098Z,100078.06
2023-04-12T02:03:54.706Z,100081.41
2023-04-12T02:06:56.659Z,100102.81
2023-04-12T02:09:58.249Z,100105.66
2023-04-12T02:13:01.386Z,100096.00
2023-04-12T02:16:03.555Z,100078.78
2023-04-12T02:19:09.007Z,100082.56
2023-04-12T02:22:10.755Z,100097.34
2023-04-12T02:25:12.673Z,100095.81
2023-04-12T02:28:14.290Z,100082.03
2023-04-12T02:31:15.911Z,100080.34
2023-04-12T02:34:18.263Z,100082.56
2023-04-12T02:37:22.055Z,100052.81
2023-04-12T02:40:23.800Z,100072.72
2023-04-12T02:43:25.564Z,100036.16
2023-04-12T02:46:27.515Z,100039.13
2023-04-12T02:49:29.169Z,100041.03
2023-04-12T02:52:33.081Z,100055.56
2023-04-12T02:55:34.699Z,100064.13
2023-04-12T02:58:37.213Z,100060.31
2023-04-12T03:01:39.434Z,100052.47
2023-04-12T03:04:41.194Z,100024.50
2023-04-12T03:07:42.727Z,100022.22
2023-04-12T03:10:44.210Z,100039.25
2023-04-12T03:13:45.844Z,100005.66
2023-04-12T03:16:49.139Z,99987.84
2023-04-12T03:19:51.234Z,100002.47
2023-04-12T03:22:52.815Z,100014.97
2023-04-12T03:25:54.386Z,100002.72
2023-04-12T03:28:59.243Z,100030.78
2023-04-12T03:32:00.833Z,100028.97
2023-04-12T03:35:03.244Z,100070.69
2023-04-12T03:38:04.866Z,100074.81
2023-04-12T03:41:06.820Z,100063.63
2023-04-12T03:44:08.500Z,100053.22
2023-04-12T03:47:11.343Z,100053.75
2023-04-12T03:50:12.981Z,100062.19
2023-04-12T03:53:14.552Z,100062.00
2023-04-12T03:56:16.710Z,100067.13
2023-04-12T03:59:18.498Z,100061.31
2023-04-12T04:02:20.256Z,100046.06
2023-04-12T04:05:22.005Z,100057.88
2023-04-12T04:08:23.606Z,100065.09
2023-04-12T04:11:25.686Z,100062.59
2023-04-12T04:14:27.733Z,100066.06
2023-04-12T04:17:29.401Z,100057.72
2023-04-12T04:20:32.027Z,100059.34
2023-04-12T04:23:38.895Z,100071.53
2023-04-12T04:26:40.683Z,100064.91
2023-04-12T04:29:44.457Z,100057.13
2023-04-12T04:32:46.146Z,100045.50
2023-04-12T04:35:47.841Z,100062.81
2023-04-12T04:38:49.511Z,100067.09
2023-04-12T04:41:54.989Z,100076.03
2023-04-12T04:45:03.600Z,100074.66
2023-04-12T04:48:05.573Z,100056.50
2023-04-12T04:51:07.364Z,100065.09
2023-04-12T04:54:09.178Z,100063.84
2023-04-12T04:57:11.785Z,100051.41
2023-04-12T05:00:14.172Z,100036.63
2023-04-12T05:03:16.125Z,100009.88
2023-04-12T05:06:17.791Z,100035.94
2023-04-12T05:09:19.355Z,100032.47
2023-04-12T05:12:20.817Z,100034.84
2023-04-12T05:15:22.382Z,100037.56
2023-04-12T05:18:23.828Z,100043.19
2023-04-12T05:21:26.396Z,100044.03
2023-04-12T05:24:27.961Z,100043.78
2023-04-12T05:27:29.866Z,100057.13
2023-04-12T05:30:31.611Z,100034.72
2023-04-12T05:33:34.610Z,100041.88
2023-04-12T05:36:36.270Z,100042.34
2023-04-12T05:39:39.265Z,100027.91
2023-04-12T05:42:41.049Z,100031.56
2023-04-12T05:45:42.645Z,100012.03
2023-04-12T05:48:44.266Z,100018.41
2023-04-12T05:51:46.134Z,100016.31
2023-04-12T05:54:47.669Z,100032.34
2023-04-12T05:57:49.278Z,100001.72
2023-04-12T06:00:51.458Z,100038.63
2023-04-12T06:03:53.265Z,100047.97
2023-04-12T06:06:56.259Z,100047.53
2023-04-12T06:09:57.812Z,100051.88
2023-04-12T06:12:59.460Z,100039.41
2023-04-12T06:16:01.317Z,100037.78
2023-04-12T06:19:03.010Z,100047.00
2023-04-12T06:22:04.657Z,100047.41
2023-04-12T06:25:06.840Z,100023.78
2023-04-12T06:28:08.395Z,100050.97
2023-04-12T06:31:10.089Z,100039.94
2023-04-12T06:34:11.688Z,100032.22
2023-04-12T06:37:13.219Z,100055.94
2023-04-12T06:40:14.942Z,100047.84
2023-04-12T06:43:22.341Z,100044.88
2023-04-12T06:46:27.270Z,100046.03
2023-04-12T06:49:28.860Z,100049.78
2023-04-12T06:52:30.668Z,100051.19
2023-04-12T06:55:32.319Z,100054.50
2023-04-12T06:58:33.880Z,100068.28
2023-04-12T07:01:35.718Z,100057.06
2023-04-12T07:04:37.457Z,100080.19
2023-04-12T07:07:39.032Z,100070.34
2023-04-12T07:10:40.572Z,100058.97
2023-04-12T07:13:42.123Z,100055.75
2023-04-12T07:16:43.883Z,100050.78
2023-04-12T07:19:45.837Z,100036.16
2023-04-12T07:22:47.428Z,100054.88
2023-04-12T07:25:49.027Z,100058.97
2023-04-12T07:28:51.292Z,100046.16
2023-04-12T07:31:52.934Z,100051.91
2023-04-12T07:34:54.511Z,100035.34
2023-04-12T07:37:56.071Z,100058.56
2023-04-12T07:40:57.906Z,100028.13
2023-04-12T07:43:59.455Z,100060.34
2023-04-12T07:47:01.227Z,100055.06
2023-04-12T07:50:04.100Z,100046.34
2023-04-12T07:53:26.675Z,100049.50
2023-04-12T07:56:28.450Z,100052.66
2023-04-12T07:59:31.796Z,100028.97
2023-04-12T08:02:33.496Z,100046.13
2023-04-12T08:05:35.262Z,100054.19
2023-04-12T08:08:36.872Z,100038.16
2023-04-12T08:11:38.456Z,100048.22
2023-04-12T08:14:40.948Z,100055.00
2023-04-12T08:17:44.000Z,100019.94
2023-04-12T08:20:45.816Z,100027.50
2023-04-12T08:23:47.426Z,100047.66
2023-04-12T08:26:49.003Z,100055.63
2023-04-12T08:29:50.763Z,100014.94
2023-04-12T08:32:53.628Z,100045.88
2023-04-12T08:35:55.745Z,100038.69
2023-04-12T08:39:01.108Z,100028.78
2023-04-12T08:42:04.953Z,100032.81
2023-04-12T08:45:11.696Z,100033.19
2023-04-12T08:48:13.834Z,100012.38
2023-04-12T08:51:17.856Z,99999.81
2023-04-12T08:54:19.482Z,100021.69
2023-04-12T08:57:21.426Z,100001.78
2023-04-12T09:00:23.304Z,100010.41
2023-04-12T09:03:25.065Z,99996.44
2023-04-12T09:06:26.711Z,99995.81
2023-04-12T09:09:41.714Z,99975.78
2023-04-12T09:12:47.325Z,100000.13
2023-04-12T09:15:52.223Z,100015.53
2023-04-12T09:18:54.460Z,100004.41
2023-04-12T09:21:56.836Z,100011.34
2023-04-12T09:24:58.429Z,99987.13
2023-04-12T09:28:00.016Z,100010.69
2023-04-12T09:31:03.904Z,100004.50
2023-04-12T09:34:09.349Z,100003.81
2023-04-12T09:37:17.479Z,99988.84
2023-04-12T09:40:25.417Z,99988.75
2023-04-12T09:43:37.889Z,99971.84
2023-04-12T09:46:50.912Z,99985.09
2023-04-12T09:49:52.675Z,99980.81
2023-04-12T09:52:56.395Z,99991.63
2023-04-12T09:55:59.564Z,99993.81
2023-04-12T09:59:06.022Z,99980.84
2023-04-12T10:02:23.138Z,99979.50
2023-04-12T10:05:27.551Z,99984.75
2023-04-12T10:08:30.920Z,99972.44
2023-04-12T10:11:34.266Z,99983.06
2023-04-12T10:14:36.044Z,99981.78
2023-04-12T10:17:41.686Z,99944.81
2023-04-12T10:20:43.407Z,99961.50
2023-04-12T10:23:45.632Z,99961.91
2023-04-12T10:26:50.331Z,99946.94
2023-04-12T10:29:51.963Z,99955.34
2023-04-12T10:33:02.493Z,99962.56
2023-04-12T10:36:08.385Z,99953.44
2023-04-12T10:39:11.298Z,99958.50
2023-04-12T10:42:16.603Z,99954.78
2023-04-12T10:45:24.326Z,99945.31
2023-04-12T10:48:53.291Z,99956.91
2023-04-12T10:52:03.752Z,99947.28
2023-04-12T10:55:29.963Z,99930.31
2023-04-12T10:59:07.937Z,99923.56
2023-04-12T11:02:13.426Z,99932.16
2023-04-12T11:05:19.180Z,99941.53
2023-04-12T11:08:20.871Z,99936.00
2023-04-12T11:11:22.833Z,99920.97
2023-04-12T11:14:29.173Z,99921.47
2023-04-12T11:17:31.289Z,99931.78
2023-04-12T11:20:33.573Z,99904.53
2023-04-12T11:23:36.423Z,99886.81
2023-04-12T11:26:38.914Z,99914.66
2023-04-12T11:29:40.565Z,99896.75
2023-04-12T11:32:45.142Z,99904.94
2023-04-12T11:35:46.728Z,99897.06
2023-04-12T11:38:50.264Z,99910.00
2023-04-12T11:41:52.300Z,99898.94
2023-04-12T11:45:00.268Z,99885.06
2023-04-12T11:48:09.141Z,99897.09
2023-04-12T11:51:31.669Z,99887.09
2023-04-12T11:54:34.780Z,99890.66
2023-04-12T11:57:38.380Z,99887.31
2023-04-12T12:00:42.190Z,99862.47
2023-04-12T12:03:44.255Z,99889.56
2023-04-12T12:06:47.338Z,99879.69
2023-04-12T12:09:50.556Z,99871.09
2023-04-12T12:12:52.153Z,99860.63
2023-04-12T12:15:53.823Z,99862.47
2023-04-12T12:18:56.699Z,99868.03
2023-04-12T12:22:08.122Z,99857.06
2023-04-12T12:25:11.629Z,99839.81
2023-04-12T12:28:13.357Z,99860.41
2023-04-12T12:31:20.578Z,99850.47
2023-04-12T12:34:23.857Z,99831.97
2023-04-12T12:37:27.020Z,99840.88
2023-04-12T12:40:32.426Z,99833.06
2023-04-12T12:43:34.134Z,99824.81
2023-04-12T12:49:40.742Z,99796.84
2023-04-12T12:52:42.420Z,99820.56
2023-04-12T12:55:44.033Z,99817.25
2023-04-12T12:58:46.763Z,99812.78
2023-04-12T13:01:48.497Z,99814.56
2023-04-12T13:04:50.238Z,99804.44
2023-04-12T13:07:51.865Z,99812.69
2023-04-12T13:10:53.456Z,99808.66
2023-04-12T13:13:55.039Z,99787.78
2023-04-12T13:16:56.898Z,99794.16
2023-04-12T13:19:58.934Z,99788.50
2023-04-12T13:23:00.728Z,99790.78
2023-04-12T13:26:02.386Z,99796.78
2023-04-12T13:29:04.019Z,99789.66
2023-04-12T13:32:05.850Z,99792.13
2023-04-12T13:35:07.670Z,99786.38
2023-04-12T13:38:09.227Z,99785.03
2023-04-12T13:41:10.814Z,99781.31
2023-04-12T13:44:12.432Z,99762.66
2023-04-12T13:47:14.374Z,99754.91
2023-04-12T13:50:16.170Z,99775.69
2023-04-12T13:53:17.736Z,99761.34
2023-04-12T13:56:19.359Z,99763.47
2023-04-12T13:59:21.136Z,99764.28
2023-04-12T14:02:22.763Z,99761.94
2023-04-12T14:05:24.397Z,99765.69
2023-04-12T14:08:25.991Z,99740.41
2023-04-12T14:11:27.613Z,99762.75
2023-04-12T14:14:29.210Z,99755.25
2023-04-12T14:17:32.568Z,99743.88
2023-04-12T14:20:34.420Z,99730.25
2023-04-12T14:23:36.051Z,99755.03
2023-04-12T14:26:39.910Z,99752.25
2023-04-12T14:29:42.112Z,99748.81
2023-04-12T14:32:45.960Z,99769.63
2023-04-12T14:35:49.268Z,99765.06
2023-04-12T14:38:51.151Z,99742.50
2023-04-12T14:41:52.779Z,99755.03
2023-04-12T14:44:54.345Z,99750.84
2023-04-12T14:47:56.098Z,99758.28
2023-04-12T14:50:57.790Z,99742.31
2023-04-12T14:53:59.567Z,99757.72
2023-04-12T14:57:01.619Z,99718.72
2023-04-12T15:00:04.368Z,99755.66
2023-04-12T15:03:07.223Z,99759.00
2023-04-12T15:06:09.229Z,99754.81
2023-04-12T15:09:11.503Z,99741.00
2023-04-12T15:12:13.144Z,99756.13
2023-04-12T15:15:15.735Z,99752.41
2023-04-12T15:18:17.278Z,99746.59
2023-04-12T15:21:18.900Z,99761.88
2023-04-12T15:24:24.258Z,99751.16
2023-04-12T15:27:25.993Z,99742.50
2023-04-12T15:30:27.808Z,99736.53
2023-04-12T15:33:30.238Z,99757.81
2023-04-12T15:36:36.576Z,99753.72
2023-04-12T15:39:38.202Z,99738.16
2023-04-12T15:42:43.560Z,99756.16
2023-04-12T15:45:45.165Z,99746.69
2023-04-12T15:48:46.814Z,99762.13
2023-04-12T15:51:48.377Z,99716.91
2023-04-12T15:54:49.950Z,99753.28
2023-04-12T15:57:51.511Z,99747.13
2023-04-12T16:00:54.282Z,99746.72
2023-04-12T16:03:56.500Z,99756.56
2023-04-12T16:07:02.089Z,99751.63
2023-04-12T16:10:04.329Z,99739.06
2023-04-12T16:13:06.401Z,99752.16
2023-04-12T16:16:08.253Z,99745.75
2023-04-12T16:19:09.888Z,99750.47
2023-04-12T16:22:11.668Z,99741.00
2023-04-12T16:25:13.342Z,99732.47
2023-04-12T16:28:18.084Z,99705.28
2023-04-12T16:31:21.115Z,99713.78
2023-04-12T16:34:23.288Z,99738.84
2023-04-12T16:37:24.989Z,99722.81
2023-04-12T16:40:26.746Z,99740.03
2023-04-12T16:43:28.283Z,99725.44
2023-04-12T16:46:30.284Z,99733.66
2023-04-12T16:49:32.214Z,99726.97
2023-04-12T16:52:33.923Z,99719.09
2023-04-12T16:55:35.474Z,99714.97
2023-04-12T16:58:37.404Z,99700.00
2023-04-12T17:01:39.360Z,99732.16
2023-04-12T17:04:41.145Z,99694.75
2023-04-12T17:07:43.121Z,99724.38
2023-04-12T17:10:45.983Z,99697.03
2023-04-12T17:13:47.625Z,99725.03
2023-04-12T17:16:49.202Z,99718.69
2023-04-12T17:19:51.256Z,99718.09
2023-04-12T17:22:53.499Z,99710.91
2023-04-12T17:25:55.158Z,99714.22
2023-04-12T17:28:56.841Z,99727.78
2023-04-12T17:31:58.438Z,99709.28
2023-04-12T17:35:00.033Z,99720.84
2023-04-12T17:38:01.633Z,99712.25
2023-04-12T17:41:03.378Z,99722.28
2023-04-12T17:44:05.746Z,99728.53
2023-04-12T17:47:07.496Z,99724.56
2023-04-12T17:50:10.529Z,99720.84
2023-04-12T17:53:12.652Z,99719.25
2023-04-12T17:56:14.561Z,99720.47
2023-04-12T17:59:16.152Z,99716.56
2023-04-12T18:02:17.867Z,99723.91
2023-04-12T18:05:19.665Z,99706.84
2023-04-12T18:08:24.907Z,99710.88
2023-04-12T18:11:26.628Z,99694.03
2023-04-12T18:14:28.445Z,99705.41
2023-04-12T18:17:30.057Z,99720.91
2023-04-12T18:20:31.894Z,99713.31
2023-04-12T18:23:33.536Z,99731.25
2023-04-12T18:26:35.176Z,99735.38
2023-04-12T18:29:36.763Z,99742.06
2023-04-12T18:32:38.470Z,99745.44
2023-04-12T18:35:40.301Z,99746.34
2023-04-12T18:38:43.692Z,99744.81
2023-04-12T18:41:45.282Z,99738.72
2023-04-12T18:44:46.827Z,99733.59
2023-04-12T18:47:48.517Z,99743.53
2023-04-12T18:50:50.236Z,99739.16
2023-04-12T18:53:51.842Z,99732.84
2023-04-12T18:56:54.621Z,99732.06
2023-04-12T18:59:56.456Z,99741.88
2023-04-12T19:02:58.490Z,99745.25
2023-04-12T19:06:01.463Z,99739.63
2023-04-12T19:09:04.027Z,99738.56
2023-04-12T19:12:05.981Z,99746.75
2023-04-12T19:15:08.577Z,99721.00
2023-04-12T19:18:10.383Z,99729.44
2023-04-12T19:21:12.023Z,99740.16
2023-04-12T19:24:13.653Z,99743.22
2023-04-12T19:27:15.596Z,99739.13
2023-04-12T19:30:17.537Z,99730.69
2023-04-12T19:33:19.697Z,99734.31
2023-04-12T19:36:23.167Z,99737.69
2023-04-12T19:39:26.919Z,99733.34
2023-04-12T19:42:28.561Z,99715.03
2023-04-12T19:45:30.634Z,99734.56
2023-04-12T19:48:32.644Z,99726.94
2023-04-12T19:51:34.706Z,99739.59
2023-04-12T19:54:37.401Z,99728.56
2023-04-12T19:57:39.738Z,99729.03
2023-04-12T20:00:41.479Z,99732.53
2023-04-12T20:03:43.956Z,99731.94
2023-04-12T20:06:45.619Z,99715.75
2023-04-12T20:09:47.198Z,99723.38
2023-04-12T20:12:48.762Z,99730.97
2023-04-12T20:15:51.109Z,99717.16
2023-04-12T20:18:57.551Z,99724.78
2023-04-12T20:22:03.441Z,99699.19
2023-04-12T20:25:05.684Z,99725.91
2023-04-12T20:28:08.671Z,99724.94
2023-04-12T20:31:12.796Z,99707.94
2023-04-12T20:34:14.543Z,99725.38
2023-04-12T20:37:17.222Z,99721.75
2023-04-12T20:40:19.229Z,99724.97
2023-04-12T20:43:20.799Z,99716.56
2023-04-12T20:46:25.948Z,99721.13
2023-04-12T20:49:28.120Z,99709.34
2023-04-12T20:52:30.338Z,99703.63
2023-04-12T20:55:35.078Z,99709.94
2023-04-12T20:58:37.427Z,99682.06
2023-04-12T21:01:39.028Z,99677.50
2023-04-12T21:04:41.810Z,99696.50
2023-04-12T21:07:43.603Z,99694.69
2023-04-12T21:10:48.253Z,99699.50
2023-04-12T21:13:50.782Z,99686.63
2023-04-12T21:16:52.621Z,99690.94
2023-04-12T21:19:54.194Z,99692.06
2023-04-12T21:22:55.766Z,99675.88
2023-04-12T21:25:57.722Z,99681.41
2023-04-12T21:28:59.617Z,99697.03
2023-04-12T21:32:02.180Z,99688.59
2023-04-12T21:35:07.115Z,99685.72
2023-04-12T21:38:08.718Z,99684.22
2023-04-12T21:41:11.645Z,99680.84
2023-04-12T21:44:13.226Z,99654.88
2023-04-12T21:47:14.814Z,99656.34
2023-04-12T21:50:16.441Z,99654.06
2023-04-12T21:53:18.039Z,99667.16
2023-04-12T21:56:19.608Z,99656.56
2023-04-12T21:59:21.171Z,99656.13
2023-04-12T22:02:22.896Z,99658.78
2023-04-12T22:05:24.730Z,99646.81
2023-04-12T22:08:26.333Z,99648.38
2023-04-12T22:11:29.560Z,99634.75
2023-04-12T22:14:31.764Z,99644.97
2023-04-12T22:17:33.467Z,99621.53
2023-04-12T22:20:35.272Z,99640.41
2023-04-12T22:23:40.511Z,99642.19
2023-04-12T22:26:42.307Z,99637.44
2023-04-12T22:29:43.934Z,99641.72
2023-04-12T22:32:45.560Z,99627.69
2023-04-12T22:35:52.241Z,99637.59
2023-04-12T22:38:53.798Z,99612.78
2023-04-12T22:41:57.559Z,99631.38
2023-04-12T22:44:59.267Z,99614.47
2023-04-12T22:48:00.802Z,99630.00
2023-04-12T22:51:02.393Z,99609.78
2023-04-12T22:54:06.163Z,99621.28
2023-04-12T22:57:07.750Z,99628.28
2023-04-12T23:00:15.803Z,99622.94
2023-04-12T23:03:19.246Z,99619.75
2023-04-12T23:06:20.848Z,99612.91
2023-04-12T23:09:23.097Z,99612.44
2023-04-12T23:12:25.052Z,99595.66
2023-04-12T23:15:26.650Z,99621.03
2023-04-12T23:18:28.242Z,99611.97
2023-04-12T23:21:30.755Z,99608.59
2023-04-12T23:24:32.340Z,99607.28
2023-04-12T23:27:33.906Z,99598.84
2023-04-12T23:30:35.455Z,99606.78
2023-04-12T23:33:38.811Z,99607.97
2023-04-12T23:36:40.490Z,99601.50
2023-04-12T23:39:43.105Z,99585.88
2023-04-12T23:42:44.739Z,99576.44
2023-04-12T23:45:46.653Z,99591.78
2023-04-12T23:48:49.319Z,99575.06
2023-04-12T23:51:50.850Z,99588.81
2023-04-12T23:54:52.649Z,99587.50
2023-04-12T23:57:54.412Z,99555.75
